createdAt,value
2019-02-26T00:00:19.960Z,1019.28
2019-02-26T00:01:21.020Z,1019.28
2019-02-26T00:02:19.782Z,1019.31
2019-02-26T00:03:19.712Z,1019.29
2019-02-26T00:04:20.962Z,1019.29
2019-02-26T00:05:21.259Z,1019.26
2019-02-26T00:06:20.651Z,1019.25
2019-02-26T00:07:23.239Z,1019.18
2019-02-26T00:08:21.374Z,1019.19
2019-02-26T00:09:22.293Z,1019.19
2019-02-26T00:10:19.739Z,1019.22
2019-02-26T00:11:19.239Z,1019.17
2019-02-26T00:12:20.447Z,1019.17
2019-02-26T00:13:19.275Z,1019.18
2019-02-26T00:14:20.237Z,1019.16
2019-02-26T00:15:19.311Z,1019.15
2019-02-26T00:16:20.518Z,1019.12
2019-02-26T00:17:20.197Z,1019.15
2019-02-26T00:18:21.311Z,1019.15
2019-02-26T00:19:19.390Z,1019.19
2019-02-26T00:20:19.402Z,1019.19
2019-02-26T00:21:20.293Z,1019.22
2019-02-26T00:22:19.441Z,1019.21
2019-02-26T00:23:21.399Z,1019.19
2019-02-26T00:24:19.473Z,1019.19
2019-02-26T00:25:20.395Z,1019.2
2019-02-26T00:26:20.500Z,1019.18
2019-02-26T00:27:19.526Z,1019.18
2019-02-26T00:28:20.208Z,1019.17
2019-02-26T00:29:21.084Z,1019.17
2019-02-26T00:30:19.579Z,1019.16
2019-02-26T00:31:21.407Z,1019.14
2019-02-26T00:32:19.615Z,1019.12
2019-02-26T00:33:22.143Z,1019.09
2019-02-26T00:34:19.651Z,1019.15
2019-02-26T00:35:21.131Z,1019.1
2019-02-26T00:36:19.689Z,1019.13
2019-02-26T00:37:20.360Z,1019.12
2019-02-26T00:38:19.927Z,1019.02
2019-02-26T00:39:20.603Z,1018.99
2019-02-26T00:40:20.299Z,1019.01
2019-02-26T00:41:20.640Z,1018.99
2019-02-26T00:42:23.445Z,1018.97
2019-02-26T00:43:21.487Z,1018.98
2019-02-26T00:44:21.173Z,1018.99
2019-02-26T00:45:22.520Z,1019
2019-02-26T00:46:19.867Z,1019
2019-02-26T00:47:19.887Z,1018.98
2019-02-26T00:48:19.903Z,1019.02
2019-02-26T00:49:21.522Z,1019.03
2019-02-26T00:50:19.938Z,1019.01
2019-02-26T00:51:20.856Z,1019.03
2019-02-26T00:52:19.976Z,1019.03
2019-02-26T00:53:21.677Z,1019.02
2019-02-26T00:54:20.662Z,1019.02
2019-02-26T00:55:23.082Z,1019.03
2019-02-26T00:56:20.048Z,1019.05
2019-02-26T00:57:20.063Z,1019.03
2019-02-26T00:58:20.083Z,1019.05
2019-02-26T00:59:20.101Z,1019.07
2019-02-26T01:00:20.118Z,1019.09
2019-02-26T01:01:21.662Z,1019.08
2019-02-26T01:02:20.152Z,1019.09
2019-02-26T01:03:20.173Z,1019.05
2019-02-26T01:04:20.190Z,1019.07
2019-02-26T01:05:20.205Z,1019.05
2019-02-26T01:06:20.225Z,1019.04
2019-02-26T01:07:21.321Z,1019.01
2019-02-26T01:08:20.275Z,1019.01
2019-02-26T01:09:20.278Z,1018.96
2019-02-26T01:10:21.081Z,1018.98
2019-02-26T01:11:21.550Z,1018.96
2019-02-26T01:12:20.330Z,1019
2019-02-26T01:13:22.310Z,1019.01
2019-02-26T01:14:22.376Z,1019
2019-02-26T01:15:20.391Z,1019
2019-02-26T01:16:20.402Z,1019.01
2019-02-26T01:17:20.420Z,1019
2019-02-26T01:18:22.374Z,1019.04
2019-02-26T01:19:20.454Z,1019.01
2019-02-26T01:20:24.262Z,1019.07
2019-02-26T01:21:22.638Z,1019.04
2019-02-26T01:22:20.508Z,1019.09
2019-02-26T01:23:22.069Z,1019.06
2019-02-26T01:24:21.403Z,1019.09
2019-02-26T01:25:22.865Z,1019.08
2019-02-26T01:26:20.580Z,1019.08
2019-02-26T01:27:20.596Z,1019.04
2019-02-26T01:28:22.393Z,1019.07
2019-02-26T01:29:22.668Z,1019.02
2019-02-26T01:30:23.481Z,1019
2019-02-26T01:31:22.351Z,1019
2019-02-26T01:32:22.697Z,1018.98
2019-02-26T01:33:22.282Z,1018.98
2019-02-26T01:34:20.720Z,1018.98
2019-02-26T01:35:20.738Z,1018.97
2019-02-26T01:36:22.729Z,1018.95
2019-02-26T01:37:20.773Z,1018.93
2019-02-26T01:38:21.305Z,1018.89
2019-02-26T01:39:22.837Z,1018.87
2019-02-26T01:40:22.997Z,1018.91
2019-02-26T01:41:22.717Z,1018.91
2019-02-26T01:42:22.837Z,1018.95
2019-02-26T01:43:20.879Z,1018.92
2019-02-26T01:44:20.898Z,1018.96
2019-02-26T01:45:22.248Z,1018.92
2019-02-26T01:46:20.930Z,1018.92
2019-02-26T01:47:21.769Z,1018.93
2019-02-26T01:48:20.967Z,1018.92
2019-02-26T01:49:21.545Z,1018.96
2019-02-26T01:50:21.006Z,1018.95
2019-02-26T01:51:21.864Z,1018.93
2019-02-26T01:52:21.041Z,1018.92
2019-02-26T01:53:21.984Z,1018.88
2019-02-26T01:54:21.072Z,1018.86
2019-02-26T01:55:22.820Z,1018.85
2019-02-26T01:56:21.106Z,1018.82
2019-02-26T01:57:21.124Z,1018.77
2019-02-26T01:58:21.142Z,1018.79
2019-02-26T01:59:21.159Z,1018.78
2019-02-26T02:00:21.176Z,1018.79
2019-02-26T02:01:21.845Z,1018.78
2019-02-26T02:02:23.188Z,1018.77
2019-02-26T02:03:22.927Z,1018.74
2019-02-26T02:04:21.247Z,1018.71
2019-02-26T02:05:21.909Z,1018.67
2019-02-26T02:06:21.281Z,1018.66
2019-02-26T02:07:23.641Z,1018.67
2019-02-26T02:08:22.949Z,1018.58
2019-02-26T02:09:22.653Z,1018.61
2019-02-26T02:10:21.351Z,1018.57
2019-02-26T02:11:23.711Z,1018.6
2019-02-26T02:12:25.390Z,1018.57
2019-02-26T02:13:25.899Z,1018.56
2019-02-26T02:14:21.423Z,1018.54
2019-02-26T02:15:23.676Z,1018.52
2019-02-26T02:16:22.056Z,1018.45
2019-02-26T02:17:21.474Z,1018.41
2019-02-26T02:18:22.909Z,1018.38
2019-02-26T02:19:23.323Z,1018.37
2019-02-26T02:20:21.706Z,1018.34
2019-02-26T02:21:23.399Z,1018.32
2019-02-26T02:22:21.560Z,1018.31
2019-02-26T02:23:23.412Z,1018.29
2019-02-26T02:24:22.698Z,1018.29
2019-02-26T02:25:21.614Z,1018.26
2019-02-26T02:26:21.632Z,1018.22
2019-02-26T02:27:22.525Z,1018.22
2019-02-26T02:28:23.822Z,1018.19
2019-02-26T02:29:24.032Z,1018.23
2019-02-26T02:30:23.886Z,1018.19
2019-02-26T02:31:21.910Z,1018.18
2019-02-26T02:32:24.011Z,1018.15
2019-02-26T02:33:24.014Z,1018.15
2019-02-26T02:34:23.240Z,1018.08
2019-02-26T02:35:21.790Z,1018.1
2019-02-26T02:36:23.537Z,1018.07
2019-02-26T02:37:24.563Z,1018.04
2019-02-26T02:38:21.842Z,1018.09
2019-02-26T02:39:23.846Z,1018.01
2019-02-26T02:40:21.879Z,1017.97
2019-02-26T02:41:21.893Z,1018.01
2019-02-26T02:42:22.125Z,1018.08
2019-02-26T02:43:23.533Z,1018.11
2019-02-26T02:44:23.019Z,1018.13
2019-02-26T02:45:21.963Z,1018.17
2019-02-26T02:46:21.980Z,1018.13
2019-02-26T02:47:21.997Z,1018.11
2019-02-26T02:48:22.030Z,1018.12
2019-02-26T02:49:22.033Z,1018.09
2019-02-26T02:50:22.051Z,1018.09
2019-02-26T02:51:22.066Z,1018.09
2019-02-26T02:52:24.123Z,1018.09
2019-02-26T02:53:23.888Z,1018.08
2019-02-26T02:54:23.609Z,1018.09
2019-02-26T02:55:22.135Z,1018.08
2019-02-26T02:56:22.154Z,1018.06
2019-02-26T02:57:24.174Z,1018.07
2019-02-26T02:58:23.806Z,1018.08
2019-02-26T02:59:22.206Z,1018.08
2019-02-26T03:00:23.632Z,1018.05
2019-02-26T03:01:24.458Z,1018.07
2019-02-26T03:02:23.005Z,1018.04
2019-02-26T03:03:22.276Z,1018.05
2019-02-26T03:04:25.155Z,1018.07
2019-02-26T03:05:22.310Z,1018.09
2019-02-26T03:06:24.178Z,1018.09
2019-02-26T03:07:23.536Z,1018.09
2019-02-26T03:08:22.673Z,1018.12
2019-02-26T03:09:22.381Z,1018.11
2019-02-26T03:10:25.965Z,1018.15
2019-02-26T03:11:22.415Z,1018.18
2019-02-26T03:12:22.432Z,1018.18
2019-02-26T03:13:23.317Z,1018.23
2019-02-26T03:14:22.466Z,1018.18
2019-02-26T03:15:24.451Z,1018.2
2019-02-26T03:16:24.763Z,1018.23
2019-02-26T03:17:22.518Z,1018.26
2019-02-26T03:18:22.536Z,1018.23
2019-02-26T03:19:22.556Z,1018.24
2019-02-26T03:20:24.501Z,1018.21
2019-02-26T03:21:24.662Z,1018.15
2019-02-26T03:22:22.606Z,1018.13
2019-02-26T03:23:22.628Z,1018.11
2019-02-26T03:24:25.076Z,1018.12
2019-02-26T03:25:24.194Z,1018.17
2019-02-26T03:26:23.367Z,1018.17
2019-02-26T03:27:22.692Z,1018.2
2019-02-26T03:28:22.709Z,1018.2
2019-02-26T03:29:22.726Z,1018.2
2019-02-26T03:30:31.665Z,1018.16
2019-02-26T03:31:25.748Z,1018.15
2019-02-26T03:32:22.787Z,1018.17
2019-02-26T03:33:22.803Z,1018.21
2019-02-26T03:34:25.227Z,1018.22
2019-02-26T03:35:23.595Z,1018.21
2019-02-26T03:36:22.848Z,1018.19
2019-02-26T03:37:23.339Z,1018.23
2019-02-26T03:38:23.388Z,1018.18
2019-02-26T03:39:22.905Z,1018.2
2019-02-26T03:40:23.964Z,1018.2
2019-02-26T03:41:25.686Z,1018.16
2019-02-26T03:42:22.950Z,1018.15
2019-02-26T03:43:22.969Z,1018.15
2019-02-26T03:44:22.987Z,1018.15
2019-02-26T03:45:24.629Z,1018.15
2019-02-26T03:46:23.023Z,1018.16
2019-02-26T03:47:23.043Z,1018.16
2019-02-26T03:48:23.057Z,1018.17
2019-02-26T03:49:26.220Z,1018.14
2019-02-26T03:50:26.262Z,1018.09
2019-02-26T03:51:23.109Z,1018.11
2019-02-26T03:52:23.124Z,1018.13
2019-02-26T03:53:25.448Z,1018.09
2019-02-26T03:54:23.163Z,1018.08
2019-02-26T03:55:23.176Z,1018.08
2019-02-26T03:56:23.193Z,1018.08
2019-02-26T03:57:24.760Z,1018.11
2019-02-26T03:58:23.229Z,1018.13
2019-02-26T03:59:23.246Z,1018.13
2019-02-26T04:00:23.262Z,1018.13
2019-02-26T04:01:23.279Z,1018.07
2019-02-26T04:02:23.596Z,1018.1
2019-02-26T04:03:23.316Z,1018.1
2019-02-26T04:04:25.603Z,1018.1
2019-02-26T04:05:23.347Z,1018.11
2019-02-26T04:06:23.365Z,1018.1
2019-02-26T04:07:25.825Z,1018.1
2019-02-26T04:08:24.277Z,1018.1
2019-02-26T04:09:23.417Z,1018.12
2019-02-26T04:10:23.440Z,1018.12
2019-02-26T04:11:25.540Z,1018.13
2019-02-26T04:12:23.483Z,1018.17
2019-02-26T04:13:23.485Z,1018.13
2019-02-26T04:14:25.572Z,1018.1
2019-02-26T04:15:24.940Z,1018.18
2019-02-26T04:16:23.536Z,1018.16
2019-02-26T04:17:27.683Z,1018.16
2019-02-26T04:18:23.573Z,1018.19
2019-02-26T04:19:26.087Z,1018.15
2019-02-26T04:20:26.873Z,1018.14
2019-02-26T04:21:23.623Z,1018.15
2019-02-26T04:22:26.091Z,1018.19
2019-02-26T04:23:23.658Z,1018.17
2019-02-26T04:24:25.756Z,1018.21
2019-02-26T04:25:25.435Z,1018.23
2019-02-26T04:26:25.986Z,1018.25
2019-02-26T04:27:23.727Z,1018.24
2019-02-26T04:28:27.211Z,1018.23
2019-02-26T04:29:23.762Z,1018.23
2019-02-26T04:30:23.782Z,1018.24
2019-02-26T04:31:23.797Z,1018.26
2019-02-26T04:32:23.813Z,1018.26
2019-02-26T04:33:23.829Z,1018.26
2019-02-26T04:34:23.848Z,1018.26
2019-02-26T04:35:23.865Z,1018.26
2019-02-26T04:36:23.887Z,1018.26
2019-02-26T04:37:24.736Z,1018.26
2019-02-26T04:38:26.571Z,1018.22
2019-02-26T04:39:23.934Z,1018.28
2019-02-26T04:40:27.193Z,1018.23
2019-02-26T04:41:23.971Z,1018.28
2019-02-26T04:42:23.988Z,1018.27
2019-02-26T04:43:25.411Z,1018.24
2019-02-26T04:44:26.686Z,1018.24
2019-02-26T04:45:24.038Z,1018.27
2019-02-26T04:46:25.426Z,1018.27
2019-02-26T04:47:25.082Z,1018.28
2019-02-26T04:48:26.846Z,1018.26
2019-02-26T04:49:26.878Z,1018.24
2019-02-26T04:50:28.498Z,1018.2
2019-02-26T04:51:24.143Z,1018.17
2019-02-26T04:52:24.158Z,1018.18
2019-02-26T04:53:25.789Z,1018.22
2019-02-26T04:54:26.952Z,1018.21
2019-02-26T04:55:24.210Z,1018.18
2019-02-26T04:56:24.229Z,1018.17
2019-02-26T04:57:24.246Z,1018.17
2019-02-26T04:58:24.277Z,1018.17
2019-02-26T04:59:24.280Z,1018.17
2019-02-26T05:00:27.610Z,1018.16
2019-02-26T05:01:24.320Z,1018.16
2019-02-26T05:02:24.330Z,1018.19
2019-02-26T05:03:24.347Z,1018.18
2019-02-26T05:04:24.366Z,1018.18
2019-02-26T05:05:25.701Z,1018.2
2019-02-26T05:06:24.400Z,1018.2
2019-02-26T05:07:24.417Z,1018.21
2019-02-26T05:08:24.436Z,1018.23
2019-02-26T05:09:25.186Z,1018.25
2019-02-26T05:10:26.956Z,1018.26
2019-02-26T05:11:31.321Z,1018.24
2019-02-26T05:12:25.278Z,1018.21
2019-02-26T05:13:26.500Z,1018.21
2019-02-26T05:14:24.538Z,1018.16
2019-02-26T05:15:26.230Z,1018.17
2019-02-26T05:16:26.550Z,1018.15
2019-02-26T05:17:27.096Z,1018.2
2019-02-26T05:18:25.949Z,1018.12
2019-02-26T05:19:24.624Z,1018.1
2019-02-26T05:20:24.642Z,1018.12
2019-02-26T05:21:27.044Z,1018.09
2019-02-26T05:22:25.719Z,1018.14
2019-02-26T05:23:25.978Z,1018.14
2019-02-26T05:24:26.269Z,1018.17
2019-02-26T05:25:24.726Z,1018.1
2019-02-26T05:26:24.745Z,1018.11
2019-02-26T05:27:25.110Z,1018.09
2019-02-26T05:28:24.779Z,1018.1
2019-02-26T05:29:24.796Z,1018.08
2019-02-26T05:30:24.813Z,1018.06
2019-02-26T05:31:24.830Z,1018.08
2019-02-26T05:32:27.089Z,1018.05
2019-02-26T05:33:27.452Z,1018.04
2019-02-26T05:34:25.900Z,1018.04
2019-02-26T05:35:25.343Z,1018.08
2019-02-26T05:36:24.917Z,1018.07
2019-02-26T05:37:26.839Z,1018.05
2019-02-26T05:38:26.483Z,1018.08
2019-02-26T05:39:26.655Z,1018.05
2019-02-26T05:40:24.983Z,1018.07
2019-02-26T05:41:25.000Z,1018.05
2019-02-26T05:42:25.016Z,1018.08
2019-02-26T05:43:26.256Z,1018.08
2019-02-26T05:44:25.051Z,1018.06
2019-02-26T05:45:26.440Z,1018.08
2019-02-26T05:46:27.338Z,1018.11
2019-02-26T05:47:26.655Z,1018.08
2019-02-26T05:48:25.932Z,1018.13
2019-02-26T05:49:25.137Z,1018.13
2019-02-26T05:50:25.156Z,1018.09
2019-02-26T05:51:27.421Z,1018.1
2019-02-26T05:52:27.217Z,1018.08
2019-02-26T05:53:25.209Z,1018.11
2019-02-26T05:54:25.222Z,1018.09
2019-02-26T05:55:25.554Z,1018.07
2019-02-26T05:56:25.256Z,1018.05
2019-02-26T05:57:32.310Z,1018.06
2019-02-26T05:58:25.313Z,1018.02
2019-02-26T05:59:25.307Z,1018.05
2019-02-26T06:00:29.025Z,1018
2019-02-26T06:01:27.698Z,1018.04
2019-02-26T06:02:25.357Z,1017.98
2019-02-26T06:03:25.378Z,1018
2019-02-26T06:04:25.391Z,1017.98
2019-02-26T06:05:26.136Z,1018
2019-02-26T06:06:25.438Z,1018
2019-02-26T06:07:28.046Z,1018.02
2019-02-26T06:08:26.543Z,1018.03
2019-02-26T06:09:28.008Z,1018.02
2019-02-26T06:10:27.106Z,1018.01
2019-02-26T06:11:28.276Z,1018.04
2019-02-26T06:12:25.527Z,1018.01
2019-02-26T06:13:25.545Z,1018.02
2019-02-26T06:14:27.533Z,1018.01
2019-02-26T06:15:26.366Z,1018.02
2019-02-26T06:16:27.069Z,1017.97
2019-02-26T06:17:25.613Z,1017.99
2019-02-26T06:18:25.629Z,1017.96
2019-02-26T06:19:25.646Z,1018.02
2019-02-26T06:20:28.140Z,1018.03
2019-02-26T06:21:26.133Z,1018.05
2019-02-26T06:22:27.069Z,1018.06
2019-02-26T06:23:28.052Z,1018.09
2019-02-26T06:24:27.092Z,1018.11
2019-02-26T06:25:25.768Z,1018.11
2019-02-26T06:26:28.245Z,1018.14
2019-02-26T06:27:27.231Z,1018.19
2019-02-26T06:28:25.799Z,1018.15
2019-02-26T06:29:27.367Z,1018.16
2019-02-26T06:30:25.833Z,1018.16
2019-02-26T06:31:25.850Z,1018.19
2019-02-26T06:32:28.153Z,1018.22
2019-02-26T06:33:25.884Z,1018.23
2019-02-26T06:34:25.902Z,1018.26
2019-02-26T06:35:25.918Z,1018.26
2019-02-26T06:36:28.046Z,1018.26
2019-02-26T06:37:25.970Z,1018.29
2019-02-26T06:38:27.989Z,1018.23
2019-02-26T06:39:26.825Z,1018.25
2019-02-26T06:40:26.002Z,1018.27
2019-02-26T06:41:26.019Z,1018.23
2019-02-26T06:42:26.036Z,1018.22
2019-02-26T06:43:26.053Z,1018.24
2019-02-26T06:44:26.070Z,1018.19
2019-02-26T06:45:26.086Z,1018.16
2019-02-26T06:46:27.161Z,1018.16
2019-02-26T06:47:28.440Z,1018.15
2019-02-26T06:48:27.455Z,1018.2
2019-02-26T06:49:26.826Z,1018.18
2019-02-26T06:50:26.173Z,1018.21
2019-02-26T06:51:28.126Z,1018.2
2019-02-26T06:52:26.204Z,1018.2
2019-02-26T06:53:26.221Z,1018.22
2019-02-26T06:54:27.057Z,1018.26
2019-02-26T06:55:26.256Z,1018.26
2019-02-26T06:56:26.272Z,1018.28
2019-02-26T06:57:26.291Z,1018.28
2019-02-26T06:58:26.308Z,1018.29
2019-02-26T06:59:27.242Z,1018.29
2019-02-26T07:00:27.410Z,1018.28
2019-02-26T07:01:26.359Z,1018.3
2019-02-26T07:02:28.912Z,1018.31
2019-02-26T07:03:26.392Z,1018.32
2019-02-26T07:04:27.018Z,1018.33
2019-02-26T07:05:26.426Z,1018.29
2019-02-26T07:06:27.628Z,1018.31
2019-02-26T07:07:26.459Z,1018.3
2019-02-26T07:08:28.552Z,1018.3
2019-02-26T07:09:26.493Z,1018.31
2019-02-26T07:10:28.715Z,1018.29
2019-02-26T07:11:28.010Z,1018.26
2019-02-26T07:12:26.626Z,1018.27
2019-02-26T07:13:26.562Z,1018.3
2019-02-26T07:14:27.266Z,1018.25
2019-02-26T07:15:28.707Z,1018.25
2019-02-26T07:16:26.612Z,1018.27
2019-02-26T07:17:26.831Z,1018.23
2019-02-26T07:18:26.646Z,1018.3
2019-02-26T07:19:28.811Z,1018.24
2019-02-26T07:20:33.814Z,1018.3
2019-02-26T07:21:26.697Z,1018.22
2019-02-26T07:22:26.714Z,1018.24
2019-02-26T07:23:27.767Z,1018.22
2019-02-26T07:24:27.194Z,1018.2
2019-02-26T07:25:26.764Z,1018.18
2019-02-26T07:26:26.781Z,1018.15
2019-02-26T07:27:28.683Z,1018.18
2019-02-26T07:28:26.982Z,1018.14
2019-02-26T07:29:30.679Z,1018.15
2019-02-26T07:30:26.850Z,1018.14
2019-02-26T07:31:28.580Z,1018.19
2019-02-26T07:32:26.883Z,1018.24
2019-02-26T07:33:27.778Z,1018.24
2019-02-26T07:34:27.416Z,1018.24
2019-02-26T07:35:28.617Z,1018.27
2019-02-26T07:36:28.133Z,1018.27
2019-02-26T07:37:28.575Z,1018.31
2019-02-26T07:38:27.645Z,1018.36
2019-02-26T07:39:27.003Z,1018.37
2019-02-26T07:40:28.331Z,1018.37
2019-02-26T07:41:28.329Z,1018.39
2019-02-26T07:42:27.056Z,1018.42
2019-02-26T07:43:27.071Z,1018.42
2019-02-26T07:44:28.376Z,1018.46
2019-02-26T07:45:27.773Z,1018.47
2019-02-26T07:46:27.126Z,1018.47
2019-02-26T07:47:28.853Z,1018.5
2019-02-26T07:48:29.302Z,1018.5
2019-02-26T07:49:27.176Z,1018.46
2019-02-26T07:50:31.241Z,1018.48
2019-02-26T07:51:27.208Z,1018.49
2019-02-26T07:52:28.379Z,1018.41
2019-02-26T07:53:27.245Z,1018.41
2019-02-26T07:54:28.766Z,1018.43
2019-02-26T07:55:27.641Z,1018.44
2019-02-26T07:56:28.122Z,1018.42
2019-02-26T07:57:27.692Z,1018.44
2019-02-26T07:58:27.331Z,1018.44
2019-02-26T07:59:27.898Z,1018.44
2019-02-26T08:00:27.366Z,1018.42
2019-02-26T08:01:27.383Z,1018.45
2019-02-26T08:02:27.820Z,1018.42
2019-02-26T08:03:29.275Z,1018.42
2019-02-26T08:04:27.432Z,1018.45
2019-02-26T08:05:28.864Z,1018.46
2019-02-26T08:06:29.260Z,1018.46
2019-02-26T08:07:28.462Z,1018.47
2019-02-26T08:08:27.502Z,1018.52
2019-02-26T08:09:27.518Z,1018.51
2019-02-26T08:10:27.536Z,1018.51
2019-02-26T08:11:27.555Z,1018.55
2019-02-26T08:12:27.570Z,1018.53
2019-02-26T08:13:29.633Z,1018.52
2019-02-26T08:14:27.625Z,1018.52
2019-02-26T08:15:27.885Z,1018.53
2019-02-26T08:16:29.958Z,1018.51
2019-02-26T08:17:27.659Z,1018.51
2019-02-26T08:18:27.687Z,1018.48
2019-02-26T08:19:29.383Z,1018.46
2019-02-26T08:20:28.446Z,1018.48
2019-02-26T08:21:29.490Z,1018.45
2019-02-26T08:22:29.943Z,1018.45
2019-02-26T08:23:27.762Z,1018.43
2019-02-26T08:24:27.779Z,1018.42
2019-02-26T08:25:27.799Z,1018.41
2019-02-26T08:26:29.155Z,1018.38
2019-02-26T08:27:28.553Z,1018.42
2019-02-26T08:28:27.849Z,1018.42
2019-02-26T08:29:29.339Z,1018.42
2019-02-26T08:30:27.886Z,1018.42
2019-02-26T08:31:28.024Z,1018.46
2019-02-26T08:32:28.555Z,1018.45
2019-02-26T08:33:27.938Z,1018.5
2019-02-26T08:34:27.955Z,1018.47
2019-02-26T08:35:27.973Z,1018.46
2019-02-26T08:36:27.991Z,1018.46
2019-02-26T08:37:28.008Z,1018.44
2019-02-26T08:38:29.959Z,1018.41
2019-02-26T08:39:28.042Z,1018.48
2019-02-26T08:40:28.061Z,1018.43
2019-02-26T08:41:28.078Z,1018.45
2019-02-26T08:42:28.097Z,1018.44
2019-02-26T08:43:28.113Z,1018.45
2019-02-26T08:44:28.253Z,1018.46
2019-02-26T08:45:28.148Z,1018.47
2019-02-26T08:46:28.165Z,1018.5
2019-02-26T08:47:28.184Z,1018.47
2019-02-26T08:48:28.207Z,1018.45
2019-02-26T08:49:28.220Z,1018.52
2019-02-26T08:50:29.092Z,1018.5
2019-02-26T08:51:28.254Z,1018.52
2019-02-26T08:52:29.335Z,1018.51
2019-02-26T08:53:28.950Z,1018.51
2019-02-26T08:54:30.266Z,1018.51
2019-02-26T08:55:28.325Z,1018.48
2019-02-26T08:56:30.930Z,1018.52
2019-02-26T08:57:28.360Z,1018.52
2019-02-26T08:58:28.377Z,1018.54
2019-02-26T08:59:28.397Z,1018.5
2019-02-26T09:00:28.417Z,1018.51
2019-02-26T09:01:28.429Z,1018.49
2019-02-26T09:02:28.449Z,1018.48
2019-02-26T09:03:28.468Z,1018.52
2019-02-26T09:04:28.485Z,1018.5
2019-02-26T09:05:31.516Z,1018.53
2019-02-26T09:06:28.520Z,1018.57
2019-02-26T09:07:28.537Z,1018.54
2019-02-26T09:08:30.589Z,1018.54
2019-02-26T09:09:30.129Z,1018.56
2019-02-26T09:10:28.591Z,1018.59
2019-02-26T09:11:29.296Z,1018.56
2019-02-26T09:12:28.628Z,1018.54
2019-02-26T09:13:28.644Z,1018.54
2019-02-26T09:14:32.003Z,1018.54
2019-02-26T09:15:28.942Z,1018.56
2019-02-26T09:16:30.326Z,1018.53
2019-02-26T09:17:30.345Z,1018.53
2019-02-26T09:18:30.962Z,1018.52
2019-02-26T09:19:30.225Z,1018.51
2019-02-26T09:20:28.769Z,1018.57
2019-02-26T09:21:29.269Z,1018.58
2019-02-26T09:22:28.807Z,1018.62
2019-02-26T09:23:30.493Z,1018.58
2019-02-26T09:24:28.844Z,1018.57
2019-02-26T09:25:31.325Z,1018.57
2019-02-26T09:26:28.877Z,1018.59
2019-02-26T09:27:29.459Z,1018.59
2019-02-26T09:28:29.431Z,1018.52
2019-02-26T09:29:28.929Z,1018.59
2019-02-26T09:30:31.502Z,1018.57
2019-02-26T09:31:28.971Z,1018.6
2019-02-26T09:32:28.985Z,1018.58
2019-02-26T09:33:32.556Z,1018.6
2019-02-26T09:34:31.549Z,1018.62
2019-02-26T09:35:31.114Z,1018.6
2019-02-26T09:36:29.370Z,1018.66
2019-02-26T09:37:29.073Z,1018.61
2019-02-26T09:38:29.092Z,1018.64
2019-02-26T09:39:29.407Z,1018.66
2019-02-26T09:40:32.583Z,1018.63
2019-02-26T09:41:29.145Z,1018.67
2019-02-26T09:42:30.113Z,1018.64
2019-02-26T09:43:29.182Z,1018.63
2019-02-26T09:44:30.998Z,1018.65
2019-02-26T09:45:30.051Z,1018.65
2019-02-26T09:46:31.180Z,1018.6
2019-02-26T09:47:31.383Z,1018.62
2019-02-26T09:48:29.270Z,1018.62
2019-02-26T09:49:31.319Z,1018.66
2019-02-26T09:50:29.306Z,1018.65
2019-02-26T09:51:30.593Z,1018.67
2019-02-26T09:52:30.239Z,1018.68
2019-02-26T09:53:29.361Z,1018.68
2019-02-26T09:54:29.378Z,1018.67
2019-02-26T09:55:29.399Z,1018.65
2019-02-26T09:56:29.415Z,1018.63
2019-02-26T09:57:29.433Z,1018.68
2019-02-26T09:58:29.456Z,1018.64
2019-02-26T09:59:31.351Z,1018.61
2019-02-26T10:00:29.742Z,1018.66
2019-02-26T10:01:30.560Z,1018.69
2019-02-26T10:02:29.889Z,1018.68
2019-02-26T10:03:30.051Z,1018.68
2019-02-26T10:04:29.558Z,1018.75
2019-02-26T10:05:29.578Z,1018.74
2019-02-26T10:06:29.595Z,1018.73
2019-02-26T10:07:31.174Z,1018.72
2019-02-26T10:08:30.599Z,1018.73
2019-02-26T10:09:29.650Z,1018.72
2019-02-26T10:10:31.006Z,1018.67
2019-02-26T10:11:29.685Z,1018.68
2019-02-26T10:12:30.241Z,1018.66
2019-02-26T10:13:29.720Z,1018.62
2019-02-26T10:14:31.006Z,1018.64
2019-02-26T10:15:29.757Z,1018.64
2019-02-26T10:16:31.125Z,1018.66
2019-02-26T10:17:29.793Z,1018.63
2019-02-26T10:18:30.853Z,1018.65
2019-02-26T10:19:31.371Z,1018.63
2019-02-26T10:20:31.746Z,1018.66
2019-02-26T10:21:32.170Z,1018.63
2019-02-26T10:22:33.134Z,1018.68
2019-02-26T10:23:32.958Z,1018.66
2019-02-26T10:24:32.134Z,1018.72
2019-02-26T10:25:31.858Z,1018.67
2019-02-26T10:26:30.732Z,1018.68
2019-02-26T10:27:31.797Z,1018.68
2019-02-26T10:28:30.174Z,1018.71
2019-02-26T10:29:32.188Z,1018.7
2019-02-26T10:30:32.876Z,1018.7
2019-02-26T10:31:30.045Z,1018.68
2019-02-26T10:32:30.064Z,1018.68
2019-02-26T10:33:31.545Z,1018.68
2019-02-26T10:34:30.393Z,1018.7
2019-02-26T10:35:33.073Z,1018.65
2019-02-26T10:36:32.529Z,1018.67
2019-02-26T10:37:31.835Z,1018.62
2019-02-26T10:38:31.769Z,1018.58
2019-02-26T10:39:32.031Z,1018.61
2019-02-26T10:40:34.988Z,1018.62
2019-02-26T10:41:30.232Z,1018.57
2019-02-26T10:42:39.365Z,1018.56
2019-02-26T10:43:30.265Z,1018.56
2019-02-26T10:44:30.337Z,1018.55
2019-02-26T10:45:30.301Z,1018.53
2019-02-26T10:46:32.111Z,1018.55
2019-02-26T10:47:32.213Z,1018.48
2019-02-26T10:48:30.356Z,1018.46
2019-02-26T10:49:30.372Z,1018.5
2019-02-26T10:50:31.832Z,1018.44
2019-02-26T10:51:30.409Z,1018.44
2019-02-26T10:52:30.428Z,1018.41
2019-02-26T10:53:30.446Z,1018.39
2019-02-26T10:54:32.048Z,1018.39
2019-02-26T10:55:33.804Z,1018.37
2019-02-26T10:56:31.366Z,1018.37
2019-02-26T10:57:31.054Z,1018.39
2019-02-26T10:58:30.540Z,1018.35
2019-02-26T10:59:30.556Z,1018.39
2019-02-26T11:00:33.841Z,1018.37
2019-02-26T11:01:31.446Z,1018.32
2019-02-26T11:02:30.610Z,1018.32
2019-02-26T11:03:35.293Z,1018.32
2019-02-26T11:04:34.614Z,1018.34
2019-02-26T11:05:30.676Z,1018.35
2019-02-26T11:06:33.136Z,1018.35
2019-02-26T11:07:31.765Z,1018.37
2019-02-26T11:08:32.730Z,1018.36
2019-02-26T11:09:31.911Z,1018.35
2019-02-26T11:10:30.758Z,1018.33
2019-02-26T11:11:32.714Z,1018.35
2019-02-26T11:12:33.956Z,1018.34
2019-02-26T11:13:30.811Z,1018.35
2019-02-26T11:14:33.064Z,1018.33
2019-02-26T11:15:33.380Z,1018.39
2019-02-26T11:16:32.894Z,1018.38
2019-02-26T11:17:31.605Z,1018.35
2019-02-26T11:18:30.902Z,1018.37
2019-02-26T11:19:33.626Z,1018.41
2019-02-26T11:20:34.034Z,1018.34
2019-02-26T11:21:30.958Z,1018.35
2019-02-26T11:22:30.975Z,1018.37
2019-02-26T11:23:33.382Z,1018.38
2019-02-26T11:24:33.457Z,1018.35
2019-02-26T11:25:31.032Z,1018.37
2019-02-26T11:26:32.438Z,1018.34
2019-02-26T11:27:31.068Z,1018.31
2019-02-26T11:28:32.919Z,1018.29
2019-02-26T11:29:33.723Z,1018.28
2019-02-26T11:30:32.158Z,1018.3
2019-02-26T11:31:31.144Z,1018.33
2019-02-26T11:32:32.611Z,1018.29
2019-02-26T11:33:31.180Z,1018.3
2019-02-26T11:34:33.327Z,1018.32
2019-02-26T11:35:31.215Z,1018.32
2019-02-26T11:36:33.006Z,1018.31
2019-02-26T11:37:32.056Z,1018.31
2019-02-26T11:38:31.271Z,1018.29
2019-02-26T11:39:31.288Z,1018.29
2019-02-26T11:40:31.308Z,1018.31
2019-02-26T11:41:33.502Z,1018.3
2019-02-26T11:42:31.345Z,1018.31
2019-02-26T11:43:31.374Z,1018.3
2019-02-26T11:44:31.380Z,1018.3
2019-02-26T11:45:32.688Z,1018.29
2019-02-26T11:46:34.272Z,1018.28
2019-02-26T11:47:32.654Z,1018.28
2019-02-26T11:48:33.200Z,1018.27
2019-02-26T11:49:31.475Z,1018.29
2019-02-26T11:50:31.493Z,1018.23
2019-02-26T11:51:37.013Z,1018.27
2019-02-26T11:52:33.743Z,1018.23
2019-02-26T11:53:31.547Z,1018.28
2019-02-26T11:54:34.373Z,1018.23
2019-02-26T11:55:32.436Z,1018.24
2019-02-26T11:56:31.602Z,1018.26
2019-02-26T11:57:33.218Z,1018.21
2019-02-26T11:58:31.641Z,1018.19
2019-02-26T11:59:33.732Z,1018.19
2019-02-26T12:00:36.137Z,1018.21
2019-02-26T12:01:32.122Z,1018.21
2019-02-26T12:02:33.909Z,1018.19
2019-02-26T12:03:33.977Z,1018.17
2019-02-26T12:04:31.751Z,1018.21
2019-02-26T12:05:34.007Z,1018.18
2019-02-26T12:06:31.787Z,1018.21
2019-02-26T12:07:32.295Z,1018.25
2019-02-26T12:08:31.826Z,1018.24